LF6622 weather

Altiport du Col de la Marrano
Puyvalador, Occitanie, France

Public forecast

Using degrees Celsius for public forecast. Weather courtesy of forecast.io.

Closest aviation weather report (METAR) to Altiport du Col de la Marrano

Closest report is Perpignan-Rivesaltes (Llabanère) Airport, 31.4 nm (58.2 km) E. Retrieved 2020/08/07 12:30 UTC (15 minutes ago):

LFMP 071230Z AUTO 04009KT 360V080 9999 FEW017 27/21 Q1018 NOSIG

Closest aviation forecast (TAF) to Altiport du Col de la Marrano

Closest forecast is Perpignan-Rivesaltes (Llabanère) Airport, 31.4 nm (58.2 km) E. Retrieved 2020/08/07 09:53 UTC (3 hours ago):

TAF LFMP 070800Z 0709/0809 VRB04KT 9999 SCT010 TEMPO 0711/0715 09010KT CAVOK BECMG 0719/0721 0800 FG VV/// TEMPO 0801/0805 0300 BECMG 0806/0808 9999 NSW BKN006